Time;durP1;ratioP1;P1;durP2;ratioP2;P2;SDS_P1;SDS_P2;PMS_P1;PMS_P2;Temp;Humidity;BMP_temperature;BMP_pressure;BME280_temperature;BME280_humidity;BME280_pressure;Samples;Min_cycle;Max_cycle;Signal;HPM_P1;HPM_P2
2023/01/26 00:02:09;;;;;;;;;;;;;;;22.97;20.03;98830.91;5049825;28;19967;-88
2023/01/26 00:04:35;;;;;;;;;;;;;;;22.99;19.98;98832.09;5051640;28;20416;-88
2023/01/26 00:07:01;;;;;;;;;;;;;;;23.05;19.79;98827.69;5048156;28;19925;-88
2023/01/26 00:09:27;;;;;;;;;;;;;;;23.29;19.43;98821.13;5045735;28;19921;-88
2023/01/26 00:11:53;;;;;;;;;;;;;;;22.66;19.58;98827.09;5047740;28;19921;-88
2023/01/26 00:14:19;;;;;;;;;;;;;;;22.50;19.49;98824.72;5049390;28;19936;-87
2023/01/26 00:16:45;;;;;;;;;;;;;;;22.80;20.31;98820.63;5044481;28;19924;-88
2023/01/26 00:19:11;;;;;;;;;;;;;;;23.48;19.72;98816.22;5040013;28;20288;-88
2023/01/26 00:21:37;;;;;;;;;;;;;;;23.61;19.71;98826.53;5050387;28;19921;-88
2023/01/26 00:24:03;;;;;;;;;;;;;;;23.73;19.32;98814.81;5046206;28;19939;-88
2023/01/26 00:26:29;;;;;;;;;;;;;;;22.95;19.31;98803.34;5048564;28;19921;-88
2023/01/26 00:28:55;;;;;;;;;;;;;;;22.87;20.02;98810.16;5048764;28;19928;-88
2023/01/26 00:31:23;;;;;;;;;;;;;;;23.04;19.11;98809.28;5044497;28;19982;-88
2023/01/26 00:33:49;;;;;;;;;;;;;;;22.94;19.84;98807.31;5041287;28;20040;-88
2023/01/26 00:36:15;;;;;;;;;;;;;;;23.35;19.71;98807.50;5054921;28;20376;-88
2023/01/26 00:38:41;;;;;;;;;;;;;;;23.65;19.40;98795.63;5047317;28;19923;-87
2023/01/26 00:41:08;;;;;;;;;;;;;;;23.47;18.75;98795.81;5034086;28;20011;-87
2023/01/26 00:43:34;;;;;;;;;;;;;;;23.59;19.44;98786.09;5043981;28;20012;-89
2023/01/26 00:46:00;;;;;;;;;;;;;;;23.47;19.05;98789.41;5050561;28;20354;-89
2023/01/26 00:48:26;;;;;;;;;;;;;;;22.96;19.03;98781.72;5046526;28;19924;-89
2023/01/26 00:50:52;;;;;;;;;;;;;;;23.47;19.05;98778.19;5051404;28;19923;-89
2023/01/26 00:53:18;;;;;;;;;;;;;;;23.58;19.31;98779.69;5043156;28;19921;-89
2023/01/26 00:55:44;;;;;;;;;;;;;;;23.69;19.28;98776.78;5053950;28;19963;-89
2023/01/26 00:58:10;;;;;;;;;;;;;;;23.65;18.45;98776.81;5052871;28;19942;-89
2023/01/26 01:00:37;;;;;;;;;;;;;;;23.76;19.12;98773.91;5050765;28;20342;-90
2023/01/26 01:03:03;;;;;;;;;;;;;;;23.67;19.23;98763.19;5048867;28;19916;-89
2023/01/26 01:05:31;;;;;;;;;;;;;;;23.75;18.64;98759.09;5050453;28;19933;-88
2023/01/26 01:07:57;;;;;;;;;;;;;;;23.13;19.50;98761.19;5051843;28;19928;-88
2023/01/26 01:10:23;;;;;;;;;;;;;;;22.42;19.72;98760.78;5053830;28;19959;-88
2023/01/26 01:12:49;;;;;;;;;;;;;;;22.81;19.17;98755.81;5050664;28;19921;-88
2023/01/26 01:15:15;;;;;;;;;;;;;;;22.77;19.30;98759.84;5047576;28;19932;-88
2023/01/26 01:17:42;;;;;;;;;;;;;;;23.12;19.64;98759.63;5045019;28;20015;-88
2023/01/26 01:20:08;;;;;;;;;;;;;;;23.01;18.88;98758.91;5048494;28;20362;-88
2023/01/26 01:22:35;;;;;;;;;;;;;;;23.14;19.51;98766.41;5051498;28;19925;-89
2023/01/26 01:25:01;;;;;;;;;;;;;;;23.60;19.13;98766.03;5045907;28;19924;-88
2023/01/26 01:27:27;;;;;;;;;;;;;;;23.80;18.86;98760.66;5043083;28;19925;-88
2023/01/26 01:29:53;;;;;;;;;;;;;;;24.04;19.21;98751.97;5051120;28;19921;-88
2023/01/26 01:32:19;;;;;;;;;;;;;;;24.05;18.45;98756.38;5049371;28;19929;-88
2023/01/26 01:34:46;;;;;;;;;;;;;;;23.87;18.38;98747.38;5051384;28;19937;-88
2023/01/26 01:37:12;;;;;;;;;;;;;;;23.13;18.53;98750.78;5051512;28;19920;-89
2023/01/26 01:39:38;;;;;;;;;;;;;;;23.23;18.70;98738.72;5051000;28;20422;-89
2023/01/26 01:42:04;;;;;;;;;;;;;;;23.04;19.39;98746.84;5039806;28;20023;-90
2023/01/26 01:44:30;;;;;;;;;;;;;;;22.93;19.09;98744.16;5052758;28;19928;-90
2023/01/26 01:46:58;;;;;;;;;;;;;;;23.04;19.04;98744.84;5045818;28;20296;-88
2023/01/26 01:49:37;;;;;;;;;;;;;;;23.27;18.85;98744.28;5047693;28;19928;-88
2023/01/26 01:52:06;;;;;;;;;;;;;;;23.36;19.18;98750.25;5039176;28;19921;-88
2023/01/26 01:54:53;;;;;;;;;;;;;;;23.19;18.27;98749.16;5046643;28;19925;-88
2023/01/26 01:57:26;;;;;;;;;;;;;;;23.24;18.97;98734.69;5041011;28;20011;-88
2023/01/26 02:00:04;;;;;;;;;;;;;;;23.33;18.98;98737.84;5039661;28;19922;-89
2023/01/26 02:02:30;;;;;;;;;;;;;;;23.17;18.94;98739.56;5034988;28;19921;-88
2023/01/26 02:05:00;;;;;;;;;;;;;;;23.15;18.55;98739.19;5047759;28;19967;-89
2023/01/26 02:07:27;;;;;;;;;;;;;;;23.35;19.18;98741.06;5044711;28;19924;-88
2023/01/26 02:12:39;;;;;;;;;;;;;;;22.94;19.67;98731.72;5045981;28;20353;-88
2023/01/26 02:15:05;;;;;;;;;;;;;;;23.09;19.63;98738.03;5047806;28;20300;-89
2023/01/26 02:17:31;;;;;;;;;;;;;;;23.40;18.77;98723.00;5049611;28;19920;-88
2023/01/26 02:20:04;;;;;;;;;;;;;;;23.27;18.65;98724.66;5051397;28;19916;-88
2023/01/26 02:22:34;;;;;;;;;;;;;;;22.57;19.32;98721.13;5043824;28;19932;-88
2023/01/26 02:25:05;;;;;;;;;;;;;;;22.90;18.78;98722.56;5044846;28;19936;-88
2023/01/26 02:27:31;;;;;;;;;;;;;;;23.32;19.26;98715.81;5046459;28;19971;-88
2023/01/26 02:29:58;;;;;;;;;;;;;;;23.38;19.10;98717.00;5046404;28;19921;-88
2023/01/26 02:32:24;;;;;;;;;;;;;;;23.29;18.76;98708.25;5046988;28;20019;-88
2023/01/26 02:34:56;;;;;;;;;;;;;;;23.45;19.06;98710.53;5045677;28;19963;-87
2023/01/26 02:37:23;;;;;;;;;;;;;;;23.09;18.77;98699.59;5048582;28;19967;-88
2023/01/26 02:39:57;;;;;;;;;;;;;;;22.72;18.88;98702.28;5054111;28;20058;-90
2023/01/26 02:42:40;;;;;;;;;;;;;;;20.59;21.37;98705.84;5048314;28;19955;-90
2023/01/26 02:45:07;;;;;;;;;;;;;;;18.74;23.08;98707.13;5050784;28;19928;-90
2023/01/26 02:47:33;;;;;;;;;;;;;;;17.57;24.54;98704.91;5052859;28;19965;-90
2023/01/26 02:49:59;;;;;;;;;;;;;;;16.95;25.46;98703.50;5045566;28;19920;-91
2023/01/26 02:52:28;;;;;;;;;;;;;;;17.30;25.30;98695.75;5049991;28;19925;-90
2023/01/26 02:57:39;;;;;;;;;;;;;;;19.88;22.05;98696.44;5045972;28;19983;-90
2023/01/26 03:00:09;;;;;;;;;;;;;;;20.08;21.58;98706.06;5045896;28;19917;-90
2023/01/26 03:02:35;;;;;;;;;;;;;;;20.32;21.51;98690.66;5054200;28;19968;-90
2023/01/26 03:05:03;;;;;;;;;;;;;;;20.27;21.72;98699.41;5051046;28;19933;-90
2023/01/26 03:07:29;;;;;;;;;;;;;;;18.75;23.28;98694.78;5055111;28;20004;-90
2023/01/26 03:09:57;;;;;;;;;;;;;;;20.02;21.79;98686.13;5053720;28;19947;-90
2023/01/26 03:12:24;;;;;;;;;;;;;;;20.84;21.08;98684.34;5053405;28;20041;-90
2023/01/26 03:17:34;;;;;;;;;;;;;;;22.10;20.52;98679.78;5051458;28;20426;-89
2023/01/26 03:28:15;;;;;;;;;;;;;;;22.12;19.96;98674.63;5041255;28;19928;-89
2023/01/26 03:30:41;;;;;;;;;;;;;;;21.48;20.19;98676.78;5032843;28;20357;-89
2023/01/26 03:33:07;;;;;;;;;;;;;;;20.99;20.74;98679.59;5048346;28;19927;-89
2023/01/26 03:35:33;;;;;;;;;;;;;;;21.66;20.19;98668.34;5052083;28;19924;-89
2023/01/26 03:37:59;;;;;;;;;;;;;;;20.89;21.16;98670.00;5054094;28;19921;-89
2023/01/26 03:56:53;;;;;;;;;;;;;;;20.50;21.56;98655.22;5049203;28;19928;-89
2023/01/26 03:59:36;;;;;;;;;;;;;;;19.38;22.51;98653.56;5047911;28;19925;-90
2023/01/26 04:10:18;;;;;;;;;;;;;;;20.34;21.66;98652.81;5047070;28;19923;-90
2023/01/26 04:23:47;;;;;;;;;;;;;;;20.11;21.90;98645.94;5050440;28;19928;-90
2023/01/26 04:26:14;;;;;;;;;;;;;;;21.11;21.52;98629.78;5052009;28;19928;-91
2023/01/26 04:28:40;;;;;;;;;;;;;;;21.38;20.49;98632.91;5044734;28;19928;-91
2023/01/26 04:31:06;;;;;;;;;;;;;;;20.40;21.76;98634.50;5050570;28;20384;-91
2023/01/26 04:33:32;;;;;;;;;;;;;;;18.72;23.42;98637.16;5054214;28;20332;-91
2023/01/26 04:36:03;;;;;;;;;;;;;;;19.89;22.29;98631.94;5064640;28;19927;-92
2023/01/26 04:38:29;;;;;;;;;;;;;;;20.94;21.73;98621.38;5046145;28;19917;-91
2023/01/26 04:40:55;;;;;;;;;;;;;;;22.07;20.41;98612.72;5044186;28;19967;-91
2023/01/26 04:43:21;;;;;;;;;;;;;;;22.31;19.58;98609.75;5047098;28;19932;-92
2023/01/26 04:46:04;;;;;;;;;;;;;;;22.22;19.78;98617.03;5050474;28;19921;-91
2023/01/26 04:48:30;;;;;;;;;;;;;;;22.43;19.97;98612.06;5047744;28;19920;-91
2023/01/26 04:50:58;;;;;;;;;;;;;;;22.25;19.33;98608.59;5044676;28;19921;-91
2023/01/26 04:53:24;;;;;;;;;;;;;;;22.11;19.47;98607.88;5044299;28;20019;-91
2023/01/26 04:55:50;;;;;;;;;;;;;;;22.12;19.52;98609.50;5044579;28;19936;-91
2023/01/26 04:58:16;;;;;;;;;;;;;;;21.62;20.05;98603.28;5042928;28;20265;-91
2023/01/26 05:00:43;;;;;;;;;;;;;;;21.15;20.13;98602.63;5048587;28;19928;-89
2023/01/26 05:03:09;;;;;;;;;;;;;;;20.18;21.59;98604.97;5037478;28;19968;-89
2023/01/26 05:05:36;;;;;;;;;;;;;;;20.94;20.75;98594.25;5040335;28;19951;-89
2023/01/26 05:08:02;;;;;;;;;;;;;;;21.46;20.18;98597.38;5045619;28;19921;-89
2023/01/26 05:10:28;;;;;;;;;;;;;;;20.64;20.94;98599.44;5043121;28;19960;-89
2023/01/26 05:12:54;;;;;;;;;;;;;;;17.25;25.19;98610.84;5050567;28;19929;-89
2023/01/26 05:15:20;;;;;;;;;;;;;;;17.45;25.58;98619.03;5041089;28;19971;-92
2023/01/26 05:17:46;;;;;;;;;;;;;;;19.01;23.01;98611.94;5039605;28;19920;-90
2023/01/26 05:20:12;;;;;;;;;;;;;;;20.42;21.69;98597.84;5044375;28;19928;-91
2023/01/26 05:22:38;;;;;;;;;;;;;;;21.39;20.30;98591.78;5043011;28;19964;-90
2023/01/26 05:25:05;;;;;;;;;;;;;;;21.48;20.09;98601.34;5047579;28;19921;-90
2023/01/26 05:27:31;;;;;;;;;;;;;;;21.18;20.41;98607.41;5035397;28;20287;-90
2023/01/26 05:29:59;;;;;;;;;;;;;;;20.80;20.77;98613.78;5036735;28;19966;-91
2023/01/26 05:32:26;;;;;;;;;;;;;;;21.41;20.60;98606.16;5049629;28;19924;-91
2023/01/26 05:34:52;;;;;;;;;;;;;;;21.94;20.02;98606.78;5038642;28;19974;-91
2023/01/26 05:37:18;;;;;;;;;;;;;;;22.01;19.65;98598.34;5049280;28;19928;-90
2023/01/26 05:39:44;;;;;;;;;;;;;;;22.60;19.91;98601.97;5046319;28;19935;-91
2023/01/26 05:42:10;;;;;;;;;;;;;;;23.18;19.46;98599.06;5039526;28;20292;-90
2023/01/26 05:44:37;;;;;;;;;;;;;;;23.30;19.41;98606.97;5040800;28;19936;-90
2023/01/26 05:47:03;;;;;;;;;;;;;;;23.57;19.37;98607.09;5040113;28;19921;-87
2023/01/26 05:49:29;;;;;;;;;;;;;;;23.60;18.73;98603.44;5044102;28;20015;-90
2023/01/26 05:51:55;;;;;;;;;;;;;;;23.60;19.24;98606.25;5047517;28;19927;-90
2023/01/26 05:54:21;;;;;;;;;;;;;;;23.46;18.48;98600.81;5043265;28;19925;-91
2023/01/26 05:56:47;;;;;;;;;;;;;;;23.08;18.89;98602.78;5050167;28;19929;-88
2023/01/26 05:59:13;;;;;;;;;;;;;;;23.16;19.69;98595.09;5049187;28;19921;-90
2023/01/26 06:01:39;;;;;;;;;;;;;;;23.57;18.88;98590.25;5042264;28;19947;-91
2023/01/26 06:04:05;;;;;;;;;;;;;;;22.94;19.21;98594.50;5050776;28;19917;-92
2023/01/26 06:06:31;;;;;;;;;;;;;;;21.31;20.98;98594.63;5032363;28;19924;-91
2023/01/26 06:08:57;;;;;;;;;;;;;;;21.41;20.27;98594.97;5033352;28;20012;-91
2023/01/26 06:11:24;;;;;;;;;;;;;;;21.70;20.86;98596.50;5052496;28;19917;-91
2023/01/26 06:13:50;;;;;;;;;;;;;;;22.57;20.34;98591.59;5052377;28;20013;-91
2023/01/26 06:16:16;;;;;;;;;;;;;;;22.99;20.23;98596.84;5053058;28;19967;-91
2023/01/26 06:18:42;;;;;;;;;;;;;;;23.64;19.56;98589.41;5052837;28;20011;-91
2023/01/26 06:21:08;;;;;;;;;;;;;;;24.04;19.08;98592.06;5050409;28;19924;-91
2023/01/26 06:23:34;;;;;;;;;;;;;;;24.23;18.86;98590.63;5033558;28;20308;-91
2023/01/26 06:26:00;;;;;;;;;;;;;;;24.16;18.75;98587.13;5033599;28;19918;-91
2023/01/26 06:28:29;;;;;;;;;;;;;;;24.25;18.53;98591.00;5053064;28;19924;-91
2023/01/26 06:31:02;;;;;;;;;;;;;;;23.76;18.17;98580.41;5037806;28;19917;-91
2023/01/26 06:33:30;;;;;;;;;;;;;;;22.76;19.12;98593.06;5033330;28;19925;-91
2023/01/26 06:35:59;;;;;;;;;;;;;;;22.53;19.78;98586.03;5033566;28;19921;-91
2023/01/26 06:38:25;;;;;;;;;;;;;;;22.71;19.36;98585.91;5034377;28;19917;-91
2023/01/26 06:40:51;;;;;;;;;;;;;;;22.79;19.43;98597.84;5033501;28;19928;-91
2023/01/26 06:43:17;;;;;;;;;;;;;;;22.69;19.30;98591.94;5035472;28;19917;-92
2023/01/26 06:45:45;;;;;;;;;;;;;;;21.97;20.19;98598.38;5053419;28;20391;-91
2023/01/26 06:48:11;;;;;;;;;;;;;;;21.56;20.76;98594.56;5053463;28;19971;-90
2023/01/26 06:50:38;;;;;;;;;;;;;;;21.70;20.40;98588.91;5053674;28;19916;-91
2023/01/26 06:53:24;;;;;;;;;;;;;;;21.54;20.44;98596.94;5051581;28;20265;-91
2023/01/26 06:55:50;;;;;;;;;;;;;;;20.23;22.13;98601.81;5044262;28;19917;-90
2023/01/26 06:58:16;;;;;;;;;;;;;;;20.52;21.74;98594.25;5037065;28;19917;-91
2023/01/26 07:00:43;;;;;;;;;;;;;;;21.00;21.09;98594.66;5043344;28;19924;-91
2023/01/26 07:03:10;;;;;;;;;;;;;;;21.50;20.61;98595.34;5056608;28;20015;-91
2023/01/26 07:05:36;;;;;;;;;;;;;;;21.75;20.58;98588.47;5056537;28;20435;-91
2023/01/26 07:08:05;;;;;;;;;;;;;;;21.24;20.61;98589.03;5056438;28;19912;-91
2023/01/26 07:10:31;;;;;;;;;;;;;;;20.77;21.69;98585.91;5056705;28;20343;-91
2023/01/26 07:12:57;;;;;;;;;;;;;;;20.39;22.00;98577.13;5055740;28;19917;-92
2023/01/26 07:15:23;;;;;;;;;;;;;;;19.52;22.94;98588.78;5058017;28;19917;-91
2023/01/26 07:17:49;;;;;;;;;;;;;;;18.18;24.29;98591.34;5056490;28;19923;-91
2023/01/26 07:20:15;;;;;;;;;;;;;;;19.15;23.12;98583.41;5056721;28;20334;-91
2023/01/26 07:22:41;;;;;;;;;;;;;;;18.73;23.73;98583.13;5056089;28;20368;-91
2023/01/26 07:25:07;;;;;;;;;;;;;;;18.39;24.15;98576.88;5047475;28;19917;-91
2023/01/26 07:27:33;;;;;;;;;;;;;;;19.06;23.73;98580.19;5036297;28;19923;-91
2023/01/26 07:29:59;;;;;;;;;;;;;;;18.37;24.18;98577.22;5037026;28;19917;-91
2023/01/26 07:32:25;;;;;;;;;;;;;;;19.16;23.76;98580.22;5036248;28;20304;-91
2023/01/26 07:34:51;;;;;;;;;;;;;;;19.71;22.67;98580.94;5042905;28;19923;-92
2023/01/26 07:37:17;;;;;;;;;;;;;;;20.36;21.97;98569.56;5056125;28;19923;-91
2023/01/26 07:39:43;;;;;;;;;;;;;;;19.15;23.32;98578.66;5056266;28;20368;-92
2023/01/26 07:42:09;;;;;;;;;;;;;;;17.59;25.49;98581.19;5055761;28;19917;-91
2023/01/26 07:44:35;;;;;;;;;;;;;;;18.93;23.81;98570.53;5055944;28;20435;-91
2023/01/26 07:47:01;;;;;;;;;;;;;;;19.47;23.32;98570.47;5055438;28;19917;-91
2023/01/26 07:49:27;;;;;;;;;;;;;;;18.58;23.92;98568.28;5056258;28;20007;-91
2023/01/26 07:51:53;;;;;;;;;;;;;;;18.37;24.53;98571.66;5055871;28;19924;-91
2023/01/26 07:54:22;;;;;;;;;;;;;;;19.58;23.13;98571.31;5055782;28;20474;-91
2023/01/26 07:56:53;;;;;;;;;;;;;;;18.47;24.08;98559.88;5055509;28;20394;-91
2023/01/26 07:59:19;;;;;;;;;;;;;;;19.40;23.16;98561.28;5055801;28;20011;-91
2023/01/26 08:01:47;;;;;;;;;;;;;;;20.61;21.62;98558.38;5055486;28;19970;-91
2023/01/26 08:04:13;;;;;;;;;;;;;;;20.78;21.24;98560.38;5043507;28;19968;-91
2023/01/26 08:06:39;;;;;;;;;;;;;;;20.86;21.62;98556.41;5035525;28;20340;-91
2023/01/26 08:09:05;;;;;;;;;;;;;;;21.31;21.06;98568.66;5044167;28;19978;-91
2023/01/26 08:11:31;;;;;;;;;;;;;;;18.45;24.09;98567.81;5058648;28;19921;-91
2023/01/26 08:13:57;;;;;;;;;;;;;;;18.58;24.20;98574.66;5061484;28;19917;-91
2023/01/26 08:16:23;;;;;;;;;;;;;;;19.70;22.61;98572.94;5057894;28;19960;-91
2023/01/26 08:18:49;;;;;;;;;;;;;;;20.43;22.79;98568.75;5055630;28;19924;-91
2023/01/26 08:21:17;;;;;;;;;;;;;;;21.80;20.95;98573.25;5041518;28;19940;-92
2023/01/26 08:23:43;;;;;;;;;;;;;;;21.66;20.67;98562.94;5035427;28;20389;-91
2023/01/26 08:26:10;;;;;;;;;;;;;;;22.33;20.17;98562.59;5044693;28;19916;-91
2023/01/26 08:28:36;;;;;;;;;;;;;;;21.88;20.54;98560.88;5049442;28;19980;-91
2023/01/26 08:31:06;;;;;;;;;;;;;;;20.08;22.06;98577.84;5043258;28;19928;-90
2023/01/26 08:33:33;;;;;;;;;;;;;;;20.58;21.98;98568.34;5035050;28;19966;-91
2023/01/26 08:36:00;;;;;;;;;;;;;;;21.43;21.17;98562.66;5056753;28;19960;-91
2023/01/26 08:38:26;;;;;;;;;;;;;;;21.52;20.79;98557.44;5055229;28;19921;-91
2023/01/26 08:40:53;;;;;;;;;;;;;;;22.02;20.54;98558.81;5055058;28;20380;-91
2023/01/26 08:43:19;;;;;;;;;;;;;;;18.79;23.43;98576.00;5057020;28;19917;-91
2023/01/26 08:45:46;;;;;;;;;;;;;;;19.29;23.20;98578.72;5075125;28;19924;-91
2023/01/26 08:48:12;;;;;;;;;;;;;;;19.90;22.57;98568.66;5056700;28;20007;-93
2023/01/26 08:50:38;;;;;;;;;;;;;;;19.93;22.54;98571.44;5054625;28;20376;-91
2023/01/26 08:53:04;;;;;;;;;;;;;;;20.63;22.00;98573.53;5055035;28;19923;-91
2023/01/26 08:55:31;;;;;;;;;;;;;;;18.68;24.15;98580.69;5040326;28;19923;-91
2023/01/26 08:57:57;;;;;;;;;;;;;;;19.37;23.23;98582.34;5035389;28;19959;-92
2023/01/26 09:00:23;;;;;;;;;;;;;;;16.97;26.39;98588.25;5049922;28;19917;-91
2023/01/26 09:02:56;;;;;;;;;;;;;;;18.95;23.96;98582.88;5074862;28;19921;-91
2023/01/26 09:05:22;;;;;;;;;;;;;;;20.74;21.65;98575.53;5074856;28;19917;-91
2023/01/26 09:07:48;;;;;;;;;;;;;;;22.03;20.78;98577.16;5074333;28;19982;-92
2023/01/26 09:10:14;;;;;;;;;;;;;;;22.41;19.82;98574.53;5074275;28;19912;-91
2023/01/26 09:12:40;;;;;;;;;;;;;;;21.49;20.79;98582.59;5042818;28;19921;-91
2023/01/26 09:15:07;;;;;;;;;;;;;;;21.53;21.03;98578.59;5034912;28;20253;-91
2023/01/26 09:17:33;;;;;;;;;;;;;;;21.75;20.79;98576.50;5045810;28;20273;-91
2023/01/26 09:19:59;;;;;;;;;;;;;;;21.70;20.58;98583.31;5054075;28;19978;-91
2023/01/26 09:22:25;;;;;;;;;;;;;;;21.07;21.13;98572.34;5045446;28;20384;-91
2023/01/26 09:24:51;;;;;;;;;;;;;;;20.96;21.67;98572.31;5072213;28;20053;-91
2023/01/26 09:27:18;;;;;;;;;;;;;;;21.49;21.30;98571.41;5074778;28;20295;-92
2023/01/26 09:29:44;;;;;;;;;;;;;;;21.51;21.31;98575.41;5041359;28;19917;-92
2023/01/26 09:32:10;;;;;;;;;;;;;;;21.77;20.59;98562.91;5045598;28;20400;-92
2023/01/26 09:34:36;;;;;;;;;;;;;;;20.22;22.39;98568.72;5054024;28;19924;-91
2023/01/26 09:37:02;;;;;;;;;;;;;;;18.54;23.54;98571.06;5053887;28;19999;-92
2023/01/26 09:39:28;;;;;;;;;;;;;;;19.93;22.68;98559.47;5054267;28;19921;-92
2023/01/26 09:41:53;;;;;;;;;;;;;;;19.77;23.04;98562.63;5054112;28;20453;-91
2023/01/26 09:44:23;;;;;;;;;;;;;;;21.54;21.41;98557.03;5063941;28;19924;-92
2023/01/26 09:46:49;;;;;;;;;;;;;;;21.44;21.36;98557.88;5039328;28;19921;-91
2023/01/26 09:49:15;;;;;;;;;;;;;;;21.75;21.02;98552.13;5034069;28;19970;-92
2023/01/26 09:51:49;;;;;;;;;;;;;;;22.37;20.44;98543.78;5047856;28;20391;-92
2023/01/26 09:54:23;;;;;;;;;;;;;;;21.05;21.75;98542.00;5054254;28;20439;-92
2023/01/26 09:56:49;;;;;;;;;;;;;;;20.28;22.60;98542.84;5054317;28;19917;-91
2023/01/26 09:59:30;;;;;;;;;;;;;;;20.53;22.45;98540.06;5054203;28;19917;-92
2023/01/26 10:02:15;;;;;;;;;;;;;;;20.75;22.13;98535.28;5052125;28;19929;-92
2023/01/26 10:04:43;;;;;;;;;;;;;;;22.32;20.31;98524.63;5034124;28;19918;-91
2023/01/26 10:07:10;;;;;;;;;;;;;;;20.72;22.24;98524.91;5034275;28;20012;-92
2023/01/26 10:09:37;;;;;;;;;;;;;;;19.89;22.96;98523.25;5052391;28;20347;-91
2023/01/26 10:12:06;;;;;;;;;;;;;;;19.92;23.04;98518.88;5054155;28;20015;-91
2023/01/26 10:14:34;;;;;;;;;;;;;;;19.96;23.25;98520.50;5053563;28;19917;-91
2023/01/26 10:17:02;;;;;;;;;;;;;;;17.02;26.74;98523.31;5053816;28;19916;-91
2023/01/26 10:19:38;;;;;;;;;;;;;;;18.94;24.24;98517.31;5047269;28;19913;-91
2023/01/26 10:22:08;;;;;;;;;;;;;;;20.93;22.31;98506.16;5033819;28;19917;-91
2023/01/26 10:24:34;;;;;;;;;;;;;;;21.92;21.46;98508.53;5049959;28;19913;-92
2023/01/26 10:27:00;;;;;;;;;;;;;;;22.41;20.74;98496.97;5053524;28;19917;-91
2023/01/26 10:29:26;;;;;;;;;;;;;;;20.78;22.41;98501.78;5053377;28;19923;-92
2023/01/26 10:31:54;;;;;;;;;;;;;;;21.85;20.68;98503.78;5054988;28;19925;-91
2023/01/26 10:34:22;;;;;;;;;;;;;;;20.89;22.65;98499.75;5056988;28;19924;-91
2023/01/26 10:36:48;;;;;;;;;;;;;;;21.62;21.13;98500.69;5049141;28;19972;-91
2023/01/26 10:39:16;;;;;;;;;;;;;;;22.67;20.54;98498.38;5037723;28;19917;-91
2023/01/26 10:41:55;;;;;;;;;;;;;;;22.10;21.07;98494.44;5043478;28;19963;-92
2023/01/26 10:44:30;;;;;;;;;;;;;;;22.44;20.17;98490.56;5068013;28;20430;-91
2023/01/26 10:47:05;;;;;;;;;;;;;;;22.61;20.29;98498.03;5077559;28;19921;-91
2023/01/26 10:49:31;;;;;;;;;;;;;;;22.55;20.44;98490.47;5076988;28;19945;-92
2023/01/26 10:52:20;;;;;;;;;;;;;;;23.44;20.53;98484.72;5077197;28;20015;-91
2023/01/26 10:54:47;;;;;;;;;;;;;;;23.75;19.05;98494.72;5043559;28;20284;-91
2023/01/26 10:57:13;;;;;;;;;;;;;;;23.90;19.60;98485.69;5052174;28;20015;-92
2023/01/26 10:59:50;;;;;;;;;;;;;;;23.61;19.78;98484.50;5057190;28;20368;-91
2023/01/26 11:02:19;;;;;;;;;;;;;;;23.76;19.21;98476.69;5057336;28;20036;-91
2023/01/26 11:05:03;;;;;;;;;;;;;;;23.89;19.25;98470.09;5056589;28;19917;-91
2023/01/26 11:07:39;;;;;;;;;;;;;;;23.96;19.14;98469.97;5056874;28;20438;-91
2023/01/26 11:10:31;;;;;;;;;;;;;;;23.90;18.76;98473.66;5056157;28;19918;-91
2023/01/26 11:13:17;;;;;;;;;;;;;;;22.38;20.38;98469.06;5056260;28;19916;-91
2023/01/26 11:15:46;;;;;;;;;;;;;;;21.73;21.94;98467.91;5056666;28;19924;-92
2023/01/26 11:18:18;;;;;;;;;;;;;;;22.43;20.14;98461.00;5056618;28;19917;-91
2023/01/26 11:20:44;;;;;;;;;;;;;;;23.09;20.64;98472.72;5039500;28;19921;-91
2023/01/26 11:23:21;;;;;;;;;;;;;;;23.28;20.23;98469.31;5039227;28;19917;-91
2023/01/26 11:25:56;;;;;;;;;;;;;;;22.85;20.64;98459.03;5036422;28;20280;-91
2023/01/26 11:28:37;;;;;;;;;;;;;;;21.61;21.83;98462.78;5037335;28;19924;-90
2023/01/26 11:31:03;;;;;;;;;;;;;;;23.07;20.41;98469.56;5036639;28;20004;-91
2023/01/26 11:33:36;;;;;;;;;;;;;;;23.17;20.26;98459.44;5047932;28;20464;-90
2023/01/26 11:36:02;;;;;;;;;;;;;;;23.21;20.03;98454.56;5056803;28;19921;-91
2023/01/26 11:38:34;;;;;;;;;;;;;;;23.48;19.59;98446.25;5056223;28;19924;-91
2023/01/26 11:41:18;;;;;;;;;;;;;;;23.67;19.63;98448.38;5056627;28;19916;-90
2023/01/26 11:44:04;;;;;;;;;;;;;;;23.31;19.89;98443.22;5050184;28;20280;-90
2023/01/26 11:46:36;;;;;;;;;;;;;;;20.76;22.44;98437.22;5035745;28;19925;-90
2023/01/26 11:49:03;;;;;;;;;;;;;;;20.34;23.38;98443.66;5038021;28;19959;-90
2023/01/26 11:51:38;;;;;;;;;;;;;;;19.93;24.15;98439.66;5057811;28;19940;-91
2023/01/26 11:54:10;;;;;;;;;;;;;;;21.69;22.00;98432.78;5055902;28;19979;-90
2023/01/26 11:56:50;;;;;;;;;;;;;;;22.64;20.17;98423.63;5055927;28;19921;-91
2023/01/26 11:59:18;;;;;;;;;;;;;;;23.38;20.27;98424.78;5054546;28;19916;-91
2023/01/26 12:01:59;;;;;;;;;;;;;;;23.68;19.73;98411.53;5047036;28;20300;-90
2023/01/26 12:04:27;;;;;;;;;;;;;;;23.42;20.33;98414.31;5036009;28;19914;-90
2023/01/26 12:07:13;;;;;;;;;;;;;;;23.21;19.91;98407.75;5042463;28;19924;-91
2023/01/26 12:09:45;;;;;;;;;;;;;;;22.60;19.92;98409.69;5055281;28;20038;-90
2023/01/26 12:12:16;;;;;;;;;;;;;;;23.05;20.07;98404.78;5056036;28;20422;-90
2023/01/26 12:14:48;;;;;;;;;;;;;;;23.36;20.37;98400.75;5055432;28;19924;-90
2023/01/26 12:17:14;;;;;;;;;;;;;;;23.12;20.42;98401.06;5054949;28;20052;-90
2023/01/26 12:19:47;;;;;;;;;;;;;;;20.96;22.43;98401.25;5038561;28;19963;-90
2023/01/26 12:22:28;;;;;;;;;;;;;;;19.76;23.97;98396.69;5035513;28;19971;-90
2023/01/26 12:24:57;;;;;;;;;;;;;;;20.25;23.60;98407.03;5054468;28;19923;-90
2023/01/26 12:27:41;;;;;;;;;;;;;;;19.78;23.20;98397.06;5055681;28;19916;-90
2023/01/26 12:30:29;;;;;;;;;;;;;;;21.65;22.01;98404.09;5055162;28;19921;-90
2023/01/26 12:32:55;;;;;;;;;;;;;;;22.89;20.22;98392.56;5054877;28;20423;-90
2023/01/26 12:35:45;;;;;;;;;;;;;;;23.66;19.97;98380.31;5049850;28;20257;-90
2023/01/26 12:38:30;;;;;;;;;;;;;;;23.57;19.91;98374.44;5035244;28;19924;-90
2023/01/26 12:41:12;;;;;;;;;;;;;;;22.99;19.98;98383.22;5044955;28;19924;-90
2023/01/26 12:43:44;;;;;;;;;;;;;;;22.33;20.61;98377.19;5058610;28;19978;-90
2023/01/26 12:46:12;;;;;;;;;;;;;;;22.47;20.66;98372.22;5074858;28;19939;-90
2023/01/26 12:48:45;;;;;;;;;;;;;;;22.71;20.63;98373.16;5074638;28;19947;-90
2023/01/26 12:51:17;;;;;;;;;;;;;;;21.42;21.29;98370.31;5075038;28;19931;-90
2023/01/26 12:54:06;;;;;;;;;;;;;;;22.58;20.40;98369.31;5041307;28;19917;-90
2023/01/26 12:56:41;;;;;;;;;;;;;;;23.34;20.22;98371.53;5034770;28;19917;-90
2023/01/26 12:59:19;;;;;;;;;;;;;;;23.85;19.68;98368.38;5052039;28;19970;-90
2023/01/26 13:01:46;;;;;;;;;;;;;;;23.36;19.88;98366.38;5057779;28;19925;-91
2023/01/26 13:04:13;;;;;;;;;;;;;;;22.67;20.29;98367.63;5054665;28;19917;-91
2023/01/26 13:06:40;;;;;;;;;;;;;;;23.10;20.43;98367.91;5054742;28;20001;-90
2023/01/26 13:09:18;;;;;;;;;;;;;;;23.51;19.88;98362.13;5051776;28;19921;-90
2023/01/26 13:11:52;;;;;;;;;;;;;;;22.43;20.88;98359.47;5034530;28;19917;-90
2023/01/26 13:14:32;;;;;;;;;;;;;;;22.76;20.34;98353.13;5036542;28;19940;-90
2023/01/26 13:17:18;;;;;;;;;;;;;;;22.78;20.01;98363.91;5048932;28;20265;-90
2023/01/26 13:19:44;;;;;;;;;;;;;;;23.06;19.70;98358.72;5023447;28;20396;-90
2023/01/26 13:22:22;;;;;;;;;;;;;;;23.06;19.53;98355.13;5034719;28;19917;-90
2023/01/26 13:25:08;;;;;;;;;;;;;;;23.22;19.98;98361.69;5051131;28;19920;-90
2023/01/26 13:27:38;;;;;;;;;;;;;;;22.64;20.42;98354.47;5037759;28;19952;-90
2023/01/26 13:30:22;;;;;;;;;;;;;;;23.03;20.39;98358.78;5032891;28;20019;-90
2023/01/26 13:32:50;;;;;;;;;;;;;;;23.55;20.09;98357.25;5048978;28;19932;-90
2023/01/26 13:35:19;;;;;;;;;;;;;;;23.23;19.86;98343.69;5054618;28;20386;-90
2023/01/26 13:37:55;;;;;;;;;;;;;;;22.73;20.10;98353.19;5054161;28;20333;-90
2023/01/26 13:40:27;;;;;;;;;;;;;;;22.94;20.40;98355.72;5054070;28;20395;-90
2023/01/26 13:42:56;;;;;;;;;;;;;;;23.03;19.86;98353.19;5053682;28;19962;-90
2023/01/26 13:45:28;;;;;;;;;;;;;;;22.89;20.14;98364.56;5072338;28;19917;-90
2023/01/26 13:47:56;;;;;;;;;;;;;;;23.15;19.32;98359.00;5074042;28;19916;-90
2023/01/26 13:50:36;;;;;;;;;;;;;;;23.22;19.50;98360.94;5054257;28;20003;-89